sensor_id;sensor_type;location;lat;lon;timestamp;temperature;humidity
15013;DHT22;7603;49.432;11.418;2023-02-27T00:00:53;-4.40;99.90
15013;DHT22;7603;49.432;11.418;2023-02-27T00:03:19;-4.40;99.90
15013;DHT22;7603;49.432;11.418;2023-02-27T00:05:44;-4.40;99.90
15013;DHT22;7603;49.432;11.418;2023-02-27T00:08:11;-4.40;99.90
15013;DHT22;7603;49.432;11.418;2023-02-27T00:10:36;-4.40;99.90
15013;DHT22;7603;49.432;11.418;2023-02-27T00:13:02;-4.40;99.90
15013;DHT22;7603;49.432;11.418;2023-02-27T00:15:28;-4.40;99.90
15013;DHT22;7603;49.432;11.418;2023-02-27T00:17:59;-4.40;99.90
15013;DHT22;7603;49.432;11.418;2023-02-27T00:20:25;-4.40;99.90
15013;DHT22;7603;49.432;11.418;2023-02-27T00:22:51;-4.40;99.90
15013;DHT22;7603;49.432;11.418;2023-02-27T00:25:17;-4.40;99.90
15013;DHT22;7603;49.432;11.418;2023-02-27T00:27:43;-4.40;99.90
15013;DHT22;7603;49.432;11.418;2023-02-27T00:30:11;-4.50;99.90
15013;DHT22;7603;49.432;11.418;2023-02-27T00:32:37;-4.50;99.90
15013;DHT22;7603;49.432;11.418;2023-02-27T00:35:08;-4.50;99.90
15013;DHT22;7603;49.432;11.418;2023-02-27T00:37:34;-4.50;99.90
15013;DHT22;7603;49.432;11.418;2023-02-27T00:40:00;-4.50;99.90
15013;DHT22;7603;49.432;11.418;2023-02-27T00:42:26;-4.50;99.90
15013;DHT22;7603;49.432;11.418;2023-02-27T00:44:53;-4.40;99.90
15013;DHT22;7603;49.432;11.418;2023-02-27T00:47:19;-4.50;99.90
15013;DHT22;7603;49.432;11.418;2023-02-27T00:49:44;-4.40;99.90
15013;DHT22;7603;49.432;11.418;2023-02-27T00:52:10;-4.50;99.90
15013;DHT22;7603;49.432;11.418;2023-02-27T00:54:35;-4.50;99.90
15013;DHT22;7603;49.432;11.418;2023-02-27T00:57:01;-4.50;99.90
15013;DHT22;7603;49.432;11.418;2023-02-27T00:59:27;-4.60;99.90
15013;DHT22;7603;49.432;11.418;2023-02-27T01:01:52;-4.60;99.90
15013;DHT22;7603;49.432;11.418;2023-02-27T01:04:18;-4.60;99.90
15013;DHT22;7603;49.432;11.418;2023-02-27T01:06:43;-4.60;99.90
15013;DHT22;7603;49.432;11.418;2023-02-27T01:09:09;-4.60;99.90
15013;DHT22;7603;49.432;11.418;2023-02-27T01:11:35;-4.60;99.90
15013;DHT22;7603;49.432;11.418;2023-02-27T01:14:00;-4.60;99.90
15013;DHT22;7603;49.432;11.418;2023-02-27T01:16:26;-4.60;99.90
15013;DHT22;7603;49.432;11.418;2023-02-27T01:18:52;-4.70;99.90
15013;DHT22;7603;49.432;11.418;2023-02-27T01:21:17;-4.70;99.90
15013;DHT22;7603;49.432;11.418;2023-02-27T01:23:43;-4.70;99.90
15013;DHT22;7603;49.432;11.418;2023-02-27T01:26:08;-4.70;99.90
15013;DHT22;7603;49.432;11.418;2023-02-27T01:28:34;-4.70;99.90
15013;DHT22;7603;49.432;11.418;2023-02-27T01:31:00;-4.80;99.90
15013;DHT22;7603;49.432;11.418;2023-02-27T01:33:25;-4.80;99.90
15013;DHT22;7603;49.432;11.418;2023-02-27T01:35:52;-4.80;99.90
15013;DHT22;7603;49.432;11.418;2023-02-27T01:38:17;-4.80;99.90
15013;DHT22;7603;49.432;11.418;2023-02-27T01:40:43;-4.80;99.90
15013;DHT22;7603;49.432;11.418;2023-02-27T01:43:15;-4.80;99.90
15013;DHT22;7603;49.432;11.418;2023-02-27T01:45:44;-4.90;99.90
15013;DHT22;7603;49.432;11.418;2023-02-27T01:50:52;-5.00;99.90
15013;DHT22;7603;49.432;11.418;2023-02-27T01:53:19;-5.00;99.90
15013;DHT22;7603;49.432;11.418;2023-02-27T01:55:46;-5.00;99.90
15013;DHT22;7603;49.432;11.418;2023-02-27T01:58:13;-5.10;99.90
15013;DHT22;7603;49.432;11.418;2023-02-27T02:00:40;-5.10;99.90
15013;DHT22;7603;49.432;11.418;2023-02-27T02:04:05;-5.10;99.90
15013;DHT22;7603;49.432;11.418;2023-02-27T02:06:05;-5.10;99.90
15013;DHT22;7603;49.432;11.418;2023-02-27T02:08:34;-5.20;99.90
15013;DHT22;7603;49.432;11.418;2023-02-27T02:11:00;-5.20;99.90
15013;DHT22;7603;49.432;11.418;2023-02-27T02:13:27;-5.20;99.90
15013;DHT22;7603;49.432;11.418;2023-02-27T02:24:38;-5.40;99.90
15013;DHT22;7603;49.432;11.418;2023-02-27T02:33:22;-5.40;99.90
15013;DHT22;7603;49.432;11.418;2023-02-27T02:45:07;-5.50;99.90
15013;DHT22;7603;49.432;11.418;2023-02-27T02:53:30;-5.60;99.90
15013;DHT22;7603;49.432;11.418;2023-02-27T02:56:13;-5.60;99.90
15013;DHT22;7603;49.432;11.418;2023-02-27T03:01:35;-5.60;99.90
15013;DHT22;7603;49.432;11.418;2023-02-27T03:04:08;-5.70;99.90
15013;DHT22;7603;49.432;11.418;2023-02-27T03:06:43;-5.70;99.90
15013;DHT22;7603;49.432;11.418;2023-02-27T03:09:16;-5.60;99.90
15013;DHT22;7603;49.432;11.418;2023-02-27T03:11:45;-5.70;99.90
15013;DHT22;7603;49.432;11.418;2023-02-27T03:16:50;-5.70;99.90
15013;DHT22;7603;49.432;11.418;2023-02-27T03:19:32;-5.80;99.90
15013;DHT22;7603;49.432;11.418;2023-02-27T03:22:10;-5.80;99.90
15013;DHT22;7603;49.432;11.418;2023-02-27T03:24:46;-5.80;99.90
15013;DHT22;7603;49.432;11.418;2023-02-27T03:27:14;-5.80;99.90
15013;DHT22;7603;49.432;11.418;2023-02-27T03:32:44;-5.90;99.90
15013;DHT22;7603;49.432;11.418;2023-02-27T03:35:12;-5.90;99.90
15013;DHT22;7603;49.432;11.418;2023-02-27T03:48:24;-5.90;99.90
15013;DHT22;7603;49.432;11.418;2023-02-27T03:50:50;-5.90;99.90
15013;DHT22;7603;49.432;11.418;2023-02-27T03:53:34;-6.00;99.90
15013;DHT22;7603;49.432;11.418;2023-02-27T03:56:04;-6.00;99.90
15013;DHT22;7603;49.432;11.418;2023-02-27T03:58:31;-6.00;99.90
15013;DHT22;7603;49.432;11.418;2023-02-27T04:00:57;-6.10;99.90
15013;DHT22;7603;49.432;11.418;2023-02-27T04:03:23;-6.10;99.90
15013;DHT22;7603;49.432;11.418;2023-02-27T04:05:48;-6.10;99.90
15013;DHT22;7603;49.432;11.418;2023-02-27T04:09:37;-6.00;99.90
15013;DHT22;7603;49.432;11.418;2023-02-27T04:12:16;-6.00;99.90
15013;DHT22;7603;49.432;11.418;2023-02-27T04:29:35;-5.80;99.90
15013;DHT22;7603;49.432;11.418;2023-02-27T04:32:14;-5.70;99.90
15013;DHT22;7603;49.432;11.418;2023-02-27T04:34:44;-5.70;99.90
15013;DHT22;7603;49.432;11.418;2023-02-27T04:37:16;-5.70;99.90
15013;DHT22;7603;49.432;11.418;2023-02-27T04:39:53;-5.80;99.90
15013;DHT22;7603;49.432;11.418;2023-02-27T04:42:26;-5.80;99.90
15013;DHT22;7603;49.432;11.418;2023-02-27T04:44:56;-5.80;99.90
15013;DHT22;7603;49.432;11.418;2023-02-27T04:47:24;-5.80;99.90
15013;DHT22;7603;49.432;11.418;2023-02-27T04:50:02;-5.80;99.90
15013;DHT22;7603;49.432;11.418;2023-02-27T04:52:30;-5.80;99.90
15013;DHT22;7603;49.432;11.418;2023-02-27T04:55:04;-5.70;99.90
15013;DHT22;7603;49.432;11.418;2023-02-27T04:57:41;-5.70;99.90
15013;DHT22;7603;49.432;11.418;2023-02-27T05:00:11;-5.70;99.90
15013;DHT22;7603;49.432;11.418;2023-02-27T05:03:00;-5.70;99.90
15013;DHT22;7603;49.432;11.418;2023-02-27T05:05:30;-5.80;99.90
15013;DHT22;7603;49.432;11.418;2023-02-27T05:08:05;-5.80;99.90
15013;DHT22;7603;49.432;11.418;2023-02-27T05:11:06;-5.90;99.90
15013;DHT22;7603;49.432;11.418;2023-02-27T05:13:55;-5.90;99.90
15013;DHT22;7603;49.432;11.418;2023-02-27T05:16:35;-6.00;99.90
15013;DHT22;7603;49.432;11.418;2023-02-27T05:19:03;-6.00;99.90
15013;DHT22;7603;49.432;11.418;2023-02-27T05:21:48;-6.00;99.90
15013;DHT22;7603;49.432;11.418;2023-02-27T05:24:34;-6.00;99.90
15013;DHT22;7603;49.432;11.418;2023-02-27T05:27:11;-6.00;99.90
15013;DHT22;7603;49.432;11.418;2023-02-27T05:29:46;-6.10;99.90
15013;DHT22;7603;49.432;11.418;2023-02-27T05:32:29;-6.10;99.90
15013;DHT22;7603;49.432;11.418;2023-02-27T05:35:26;-6.10;99.90
15013;DHT22;7603;49.432;11.418;2023-02-27T05:38:03;-6.10;99.90
15013;DHT22;7603;49.432;11.418;2023-02-27T05:40:34;-6.10;99.90
15013;DHT22;7603;49.432;11.418;2023-02-27T05:43:09;-6.10;99.90
15013;DHT22;7603;49.432;11.418;2023-02-27T05:45:42;-6.10;99.90
15013;DHT22;7603;49.432;11.418;2023-02-27T05:48:13;-6.10;99.90
15013;DHT22;7603;49.432;11.418;2023-02-27T05:50:41;-6.20;99.90
15013;DHT22;7603;49.432;11.418;2023-02-27T05:53:12;-6.20;99.90
15013;DHT22;7603;49.432;11.418;2023-02-27T05:55:46;-6.20;99.90
15013;DHT22;7603;49.432;11.418;2023-02-27T06:00:43;-6.20;99.90
15013;DHT22;7603;49.432;11.418;2023-02-27T06:03:10;-6.20;99.90
15013;DHT22;7603;49.432;11.418;2023-02-27T06:05:39;-6.20;99.90
15013;DHT22;7603;49.432;11.418;2023-02-27T06:08:05;-6.20;99.90
15013;DHT22;7603;49.432;11.418;2023-02-27T06:10:31;-6.20;99.90
15013;DHT22;7603;49.432;11.418;2023-02-27T06:12:56;-6.20;99.90
15013;DHT22;7603;49.432;11.418;2023-02-27T06:15:22;-6.10;99.90
15013;DHT22;7603;49.432;11.418;2023-02-27T06:17:48;-6.10;99.90
15013;DHT22;7603;49.432;11.418;2023-02-27T06:20:13;-6.20;99.90
15013;DHT22;7603;49.432;11.418;2023-02-27T06:22:39;-6.20;99.90
15013;DHT22;7603;49.432;11.418;2023-02-27T06:25:05;-6.20;99.90
15013;DHT22;7603;49.432;11.418;2023-02-27T06:27:31;-6.20;99.90
15013;DHT22;7603;49.432;11.418;2023-02-27T06:29:57;-6.30;99.90
15013;DHT22;7603;49.432;11.418;2023-02-27T06:32:22;-6.30;99.90
15013;DHT22;7603;49.432;11.418;2023-02-27T06:34:50;-6.30;99.90
15013;DHT22;7603;49.432;11.418;2023-02-27T06:37:16;-6.30;99.90
15013;DHT22;7603;49.432;11.418;2023-02-27T06:39:41;-6.40;99.90
15013;DHT22;7603;49.432;11.418;2023-02-27T06:42:07;-6.30;99.90
15013;DHT22;7603;49.432;11.418;2023-02-27T06:44:33;-6.30;99.90
15013;DHT22;7603;49.432;11.418;2023-02-27T06:46:59;-6.30;99.90
15013;DHT22;7603;49.432;11.418;2023-02-27T06:49:24;-6.30;99.90
15013;DHT22;7603;49.432;11.418;2023-02-27T06:51:50;-6.30;99.90
15013;DHT22;7603;49.432;11.418;2023-02-27T06:54:16;-6.30;99.90
15013;DHT22;7603;49.432;11.418;2023-02-27T06:56:41;-6.20;99.90
15013;DHT22;7603;49.432;11.418;2023-02-27T06:59:07;-6.10;99.90
15013;DHT22;7603;49.432;11.418;2023-02-27T07:01:32;-6.00;99.90
15013;DHT22;7603;49.432;11.418;2023-02-27T07:03:58;-6.00;99.90
15013;DHT22;7603;49.432;11.418;2023-02-27T07:06:25;-5.90;99.90
15013;DHT22;7603;49.432;11.418;2023-02-27T07:08:51;-5.80;99.90
15013;DHT22;7603;49.432;11.418;2023-02-27T07:11:17;-5.70;99.90
15013;DHT22;7603;49.432;11.418;2023-02-27T07:13:43;-5.60;99.90
15013;DHT22;7603;49.432;11.418;2023-02-27T07:16:08;-5.50;99.90
15013;DHT22;7603;49.432;11.418;2023-02-27T07:18:34;-5.30;99.90
15013;DHT22;7603;49.432;11.418;2023-02-27T07:21:00;-5.20;99.90
15013;DHT22;7603;49.432;11.418;2023-02-27T07:23:25;-5.00;99.90
15013;DHT22;7603;49.432;11.418;2023-02-27T07:25:51;-4.90;99.90
15013;DHT22;7603;49.432;11.418;2023-02-27T07:28:16;-4.70;99.90
15013;DHT22;7603;49.432;11.418;2023-02-27T07:30:45;-4.50;99.90
15013;DHT22;7603;49.432;11.418;2023-02-27T07:33:11;-4.40;99.90
15013;DHT22;7603;49.432;11.418;2023-02-27T07:35:36;-4.20;99.90
15013;DHT22;7603;49.432;11.418;2023-02-27T07:38:02;-4.10;99.90
15013;DHT22;7603;49.432;11.418;2023-02-27T07:40:28;-3.90;99.90
15013;DHT22;7603;49.432;11.418;2023-02-27T07:42:54;-3.70;99.90
15013;DHT22;7603;49.432;11.418;2023-02-27T07:45:19;-3.60;99.90
15013;DHT22;7603;49.432;11.418;2023-02-27T07:47:46;-3.40;99.90
15013;DHT22;7603;49.432;11.418;2023-02-27T07:50:12;-3.30;99.90
15013;DHT22;7603;49.432;11.418;2023-02-27T07:52:42;-3.10;99.90
15013;DHT22;7603;49.432;11.418;2023-02-27T07:55:09;-2.90;99.90
15013;DHT22;7603;49.432;11.418;2023-02-27T07:57:35;-2.80;99.90
15013;DHT22;7603;49.432;11.418;2023-02-27T08:00:02;-2.60;99.90
15013;DHT22;7603;49.432;11.418;2023-02-27T08:02:28;-2.50;99.90
15013;DHT22;7603;49.432;11.418;2023-02-27T08:04:54;-2.30;99.90
15013;DHT22;7603;49.432;11.418;2023-02-27T08:07:19;-2.20;99.90
15013;DHT22;7603;49.432;11.418;2023-02-27T08:09:45;-2.00;99.90
15013;DHT22;7603;49.432;11.418;2023-02-27T08:12:10;-1.80;99.90
15013;DHT22;7603;49.432;11.418;2023-02-27T08:14:36;-1.70;99.90
15013;DHT22;7603;49.432;11.418;2023-02-27T08:17:02;-1.40;99.90
15013;DHT22;7603;49.432;11.418;2023-02-27T08:19:27;-1.10;99.90
15013;DHT22;7603;49.432;11.418;2023-02-27T08:21:53;-0.70;99.90
15013;DHT22;7603;49.432;11.418;2023-02-27T08:24:18;-0.30;99.90
15013;DHT22;7603;49.432;11.418;2023-02-27T08:26:44;0.10;99.90
15013;DHT22;7603;49.432;11.418;2023-02-27T08:29:09;0.60;99.90
15013;DHT22;7603;49.432;11.418;2023-02-27T08:31:35;1.00;99.90
15013;DHT22;7603;49.432;11.418;2023-02-27T08:34:01;1.50;99.90
15013;DHT22;7603;49.432;11.418;2023-02-27T08:36:26;2.00;99.90
15013;DHT22;7603;49.432;11.418;2023-02-27T08:38:52;2.50;99.90
15013;DHT22;7603;49.432;11.418;2023-02-27T08:41:17;3.10;99.90
15013;DHT22;7603;49.432;11.418;2023-02-27T08:43:43;3.70;99.90
15013;DHT22;7603;49.432;11.418;2023-02-27T08:46:09;4.20;99.90
15013;DHT22;7603;49.432;11.418;2023-02-27T08:48:34;4.80;99.90
15013;DHT22;7603;49.432;11.418;2023-02-27T08:51:00;5.50;99.90
15013;DHT22;7603;49.432;11.418;2023-02-27T08:53:25;6.10;99.90
15013;DHT22;7603;49.432;11.418;2023-02-27T08:55:52;6.60;99.90
15013;DHT22;7603;49.432;11.418;2023-02-27T08:58:18;7.10;97.50
15013;DHT22;7603;49.432;11.418;2023-02-27T09:00:44;7.60;96.10
15013;DHT22;7603;49.432;11.418;2023-02-27T09:03:09;8.00;92.00
15013;DHT22;7603;49.432;11.418;2023-02-27T09:05:36;8.40;91.90
15013;DHT22;7603;49.432;11.418;2023-02-27T09:08:02;8.70;85.20
15013;DHT22;7603;49.432;11.418;2023-02-27T09:10:29;8.80;81.80
15013;DHT22;7603;49.432;11.418;2023-02-27T09:12:54;9.00;79.80
15013;DHT22;7603;49.432;11.418;2023-02-27T09:15:20;9.20;75.10
15013;DHT22;7603;49.432;11.418;2023-02-27T09:17:46;9.40;72.80
15013;DHT22;7603;49.432;11.418;2023-02-27T09:20:11;9.70;73.00
15013;DHT22;7603;49.432;11.418;2023-02-27T09:22:37;10.10;70.10
15013;DHT22;7603;49.432;11.418;2023-02-27T09:25:03;10.70;71.60
15013;DHT22;7603;49.432;11.418;2023-02-27T09:27:29;11.20;70.00
15013;DHT22;7603;49.432;11.418;2023-02-27T09:29:55;11.30;66.00
15013;DHT22;7603;49.432;11.418;2023-02-27T09:32:23;11.20;62.90
15013;DHT22;7603;49.432;11.418;2023-02-27T09:34:49;11.00;63.90
15013;DHT22;7603;49.432;11.418;2023-02-27T09:37:15;10.60;60.70
15013;DHT22;7603;49.432;11.418;2023-02-27T09:39:41;10.20;62.80
15013;DHT22;7603;49.432;11.418;2023-02-27T09:42:20;9.70;62.90
15013;DHT22;7603;49.432;11.418;2023-02-27T09:44:48;9.60;64.30
15013;DHT22;7603;49.432;11.418;2023-02-27T09:47:35;9.30;63.40
15013;DHT22;7603;49.432;11.418;2023-02-27T09:50:05;9.30;62.40
15013;DHT22;7603;49.432;11.418;2023-02-27T09:52:34;9.00;63.40
15013;DHT22;7603;49.432;11.418;2023-02-27T09:55:01;9.10;63.10
15013;DHT22;7603;49.432;11.418;2023-02-27T09:57:48;9.20;61.90
15013;DHT22;7603;49.432;11.418;2023-02-27T10:03:23;8.50;64.50
15013;DHT22;7603;49.432;11.418;2023-02-27T10:06:25;8.70;65.60
15013;DHT22;7603;49.432;11.418;2023-02-27T10:14:37;9.30;59.20
15013;DHT22;7603;49.432;11.418;2023-02-27T10:17:12;8.60;59.80
15013;DHT22;7603;49.432;11.418;2023-02-27T10:19:43;7.80;59.50
15013;DHT22;7603;49.432;11.418;2023-02-27T10:22:12;7.20;61.20
15013;DHT22;7603;49.432;11.418;2023-02-27T10:24:42;6.80;62.10
15013;DHT22;7603;49.432;11.418;2023-02-27T10:27:14;6.60;62.50
15013;DHT22;7603;49.432;11.418;2023-02-27T10:29:41;6.70;63.20
15013;DHT22;7603;49.432;11.418;2023-02-27T10:34:40;6.70;64.20
15013;DHT22;7603;49.432;11.418;2023-02-27T10:37:12;6.60;64.50
15013;DHT22;7603;49.432;11.418;2023-02-27T10:39:48;6.30;64.30
15013;DHT22;7603;49.432;11.418;2023-02-27T10:42:16;5.90;65.00
15013;DHT22;7603;49.432;11.418;2023-02-27T10:44:42;5.50;67.40
15013;DHT22;7603;49.432;11.418;2023-02-27T10:47:16;5.30;68.50
15013;DHT22;7603;49.432;11.418;2023-02-27T10:49:42;5.10;70.20
15013;DHT22;7603;49.432;11.418;2023-02-27T10:52:11;5.30;70.40
15013;DHT22;7603;49.432;11.418;2023-02-27T10:54:37;5.90;70.20
15013;DHT22;7603;49.432;11.418;2023-02-27T10:59:54;6.80;67.70
15013;DHT22;7603;49.432;11.418;2023-02-27T11:02:41;7.10;66.00
15013;DHT22;7603;49.432;11.418;2023-02-27T11:05:30;7.00;65.20
15013;DHT22;7603;49.432;11.418;2023-02-27T11:08:13;6.80;65.20
15013;DHT22;7603;49.432;11.418;2023-02-27T11:10:54;6.60;66.10
15013;DHT22;7603;49.432;11.418;2023-02-27T11:13:22;6.30;65.90
15013;DHT22;7603;49.432;11.418;2023-02-27T11:16:14;6.20;66.60
15013;DHT22;7603;49.432;11.418;2023-02-27T11:18:41;5.90;65.90
15013;DHT22;7603;49.432;11.418;2023-02-27T11:21:14;5.90;67.40
15013;DHT22;7603;49.432;11.418;2023-02-27T11:24:04;6.10;67.30
15013;DHT22;7603;49.432;11.418;2023-02-27T11:26:40;6.40;66.50
15013;DHT22;7603;49.432;11.418;2023-02-27T11:29:19;6.30;63.80
15013;DHT22;7603;49.432;11.418;2023-02-27T11:34:19;6.20;65.00
15013;DHT22;7603;49.432;11.418;2023-02-27T11:36:47;6.30;65.50
15013;DHT22;7603;49.432;11.418;2023-02-27T11:41:52;6.70;62.80
15013;DHT22;7603;49.432;11.418;2023-02-27T11:44:23;6.70;61.80
15013;DHT22;7603;49.432;11.418;2023-02-27T11:46:49;6.80;61.30
15013;DHT22;7603;49.432;11.418;2023-02-27T11:49:28;6.90;60.60
15013;DHT22;7603;49.432;11.418;2023-02-27T11:52:09;6.80;60.20
15013;DHT22;7603;49.432;11.418;2023-02-27T11:54:53;6.80;60.50
15013;DHT22;7603;49.432;11.418;2023-02-27T11:57:37;6.90;60.70
15013;DHT22;7603;49.432;11.418;2023-02-27T12:00:16;6.80;61.40
15013;DHT22;7603;49.432;11.418;2023-02-27T12:07:58;6.70;60.30
15013;DHT22;7603;49.432;11.418;2023-02-27T12:10:27;6.60;59.90
15013;DHT22;7603;49.432;11.418;2023-02-27T12:13:44;6.30;59.40
15013;DHT22;7603;49.432;11.418;2023-02-27T12:15:59;6.20;60.00
15013;DHT22;7603;49.432;11.418;2023-02-27T12:18:40;6.90;60.60
15013;DHT22;7603;49.432;11.418;2023-02-27T12:21:21;8.40;59.30
15013;DHT22;7603;49.432;11.418;2023-02-27T12:26:41;10.80;52.50
15013;DHT22;7603;49.432;11.418;2023-02-27T12:29:38;10.80;52.30
15013;DHT22;7603;49.432;11.418;2023-02-27T12:32:29;10.40;51.20
15013;DHT22;7603;49.432;11.418;2023-02-27T12:35:01;9.70;52.40
15013;DHT22;7603;49.432;11.418;2023-02-27T12:37:30;9.10;52.70
15013;DHT22;7603;49.432;11.418;2023-02-27T12:40:00;8.50;53.00
15013;DHT22;7603;49.432;11.418;2023-02-27T12:56:18;7.50;55.60
15013;DHT22;7603;49.432;11.418;2023-02-27T13:01:52;7.80;54.70
15013;DHT22;7603;49.432;11.418;2023-02-27T13:04:47;8.30;54.50
15013;DHT22;7603;49.432;11.418;2023-02-27T13:07:28;9.30;53.30
15013;DHT22;7603;49.432;11.418;2023-02-27T13:09:58;10.70;51.50
15013;DHT22;7603;49.432;11.418;2023-02-27T13:12:46;12.40;49.40
15013;DHT22;7603;49.432;11.418;2023-02-27T13:15:21;14.80;44.70
15013;DHT22;7603;49.432;11.418;2023-02-27T13:17:58;16.80;41.80
15013;DHT22;7603;49.432;11.418;2023-02-27T13:25:37;22.10;33.60
15013;DHT22;7603;49.432;11.418;2023-02-27T13:28:06;23.40;30.80
15013;DHT22;7603;49.432;11.418;2023-02-27T13:30:39;23.90;28.60
15013;DHT22;7603;49.432;11.418;2023-02-27T13:38:44;24.60;26.70
15013;DHT22;7603;49.432;11.418;2023-02-27T13:43:46;23.20;25.90
15013;DHT22;7603;49.432;11.418;2023-02-27T13:46:32;22.50;25.60
15013;DHT22;7603;49.432;11.418;2023-02-27T13:56:46;17.70;30.30
15013;DHT22;7603;49.432;11.418;2023-02-27T13:59:26;16.60;31.80
15013;DHT22;7603;49.432;11.418;2023-02-27T14:02:22;15.30;33.30
15013;DHT22;7603;49.432;11.418;2023-02-27T14:04:52;14.20;34.90
15013;DHT22;7603;49.432;11.418;2023-02-27T14:07:25;13.00;35.80
15013;DHT22;7603;49.432;11.418;2023-02-27T14:10:00;12.20;37.40
15013;DHT22;7603;49.432;11.418;2023-02-27T14:12:35;13.00;39.00
15013;DHT22;7603;49.432;11.418;2023-02-27T14:18:44;16.10;34.60
15013;DHT22;7603;49.432;11.418;2023-02-27T14:20:56;16.90;33.50
15013;DHT22;7603;49.432;11.418;2023-02-27T14:23:25;17.20;31.70
15013;DHT22;7603;49.432;11.418;2023-02-27T14:26:20;17.20;32.10
15013;DHT22;7603;49.432;11.418;2023-02-27T14:28:51;17.80;31.90
15013;DHT22;7603;49.432;11.418;2023-02-27T14:31:29;18.50;30.00
15013;DHT22;7603;49.432;11.418;2023-02-27T14:33:58;17.90;30.00
15013;DHT22;7603;49.432;11.418;2023-02-27T14:36:32;17.00;30.90
15013;DHT22;7603;49.432;11.418;2023-02-27T14:39:00;17.20;30.90
15013;DHT22;7603;49.432;11.418;2023-02-27T14:44:23;17.10;30.90
15013;DHT22;7603;49.432;11.418;2023-02-27T14:46:50;16.20;31.30
15013;DHT22;7603;49.432;11.418;2023-02-27T14:49:28;15.30;33.00
15013;DHT22;7603;49.432;11.418;2023-02-27T14:51:55;14.80;34.10
15013;DHT22;7603;49.432;11.418;2023-02-27T14:54:26;14.10;34.70
15013;DHT22;7603;49.432;11.418;2023-02-27T14:57:03;13.50;35.40
15013;DHT22;7603;49.432;11.418;2023-02-27T14:59:30;13.30;36.50
15013;DHT22;7603;49.432;11.418;2023-02-27T15:01:59;14.00;36.50
15013;DHT22;7603;49.432;11.418;2023-02-27T15:04:30;15.20;34.90
15013;DHT22;7603;49.432;11.418;2023-02-27T15:06:57;16.10;34.00
15013;DHT22;7603;49.432;11.418;2023-02-27T15:09:41;17.00;32.10
15013;DHT22;7603;49.432;11.418;2023-02-27T15:12:18;17.10;30.60
15013;DHT22;7603;49.432;11.418;2023-02-27T15:14:58;16.20;31.20
15013;DHT22;7603;49.432;11.418;2023-02-27T15:17:37;15.80;32.20
15013;DHT22;7603;49.432;11.418;2023-02-27T15:20:25;16.20;32.30
15013;DHT22;7603;49.432;11.418;2023-02-27T15:22:52;16.80;31.90
15013;DHT22;7603;49.432;11.418;2023-02-27T15:28:04;18.20;30.30
15013;DHT22;7603;49.432;11.418;2023-02-27T15:30:30;18.30;29.30
15013;DHT22;7603;49.432;11.418;2023-02-27T15:32:57;18.20;29.70
15013;DHT22;7603;49.432;11.418;2023-02-27T15:35:44;18.10;29.60
15013;DHT22;7603;49.432;11.418;2023-02-27T15:38:28;17.30;29.50
15013;DHT22;7603;49.432;11.418;2023-02-27T15:40:55;17.30;30.10
15013;DHT22;7603;49.432;11.418;2023-02-27T15:43:22;17.50;30.40
15013;DHT22;7603;49.432;11.418;2023-02-27T15:45:49;17.40;30.50
15013;DHT22;7603;49.432;11.418;2023-02-27T15:48:15;17.40;30.10
15013;DHT22;7603;49.432;11.418;2023-02-27T15:50:47;17.30;29.80
15013;DHT22;7603;49.432;11.418;2023-02-27T15:53:19;16.90;30.10
15013;DHT22;7603;49.432;11.418;2023-02-27T15:56:04;16.50;30.50
15013;DHT22;7603;49.432;11.418;2023-02-27T15:58:35;16.10;30.20
15013;DHT22;7603;49.432;11.418;2023-02-27T16:03:45;13.80;31.60
15013;DHT22;7603;49.432;11.418;2023-02-27T16:06:32;12.10;33.90
15013;DHT22;7603;49.432;11.418;2023-02-27T16:09:05;10.90;36.60
15013;DHT22;7603;49.432;11.418;2023-02-27T16:11:35;10.40;37.80
15013;DHT22;7603;49.432;11.418;2023-02-27T16:14:02;9.80;38.30
15013;DHT22;7603;49.432;11.418;2023-02-27T16:16:29;9.20;39.30
15013;DHT22;7603;49.432;11.418;2023-02-27T16:19:24;8.40;40.40
15013;DHT22;7603;49.432;11.418;2023-02-27T16:22:16;7.60;42.30
15013;DHT22;7603;49.432;11.418;2023-02-27T16:24:42;6.70;43.90
15013;DHT22;7603;49.432;11.418;2023-02-27T16:27:25;6.00;45.30
15013;DHT22;7603;49.432;11.418;2023-02-27T16:29:56;5.40;46.70
15013;DHT22;7603;49.432;11.418;2023-02-27T16:32:29;4.80;47.30
15013;DHT22;7603;49.432;11.418;2023-02-27T16:35:03;4.40;48.80
15013;DHT22;7603;49.432;11.418;2023-02-27T16:37:38;4.00;49.90
15013;DHT22;7603;49.432;11.418;2023-02-27T16:42:35;3.30;52.30
15013;DHT22;7603;49.432;11.418;2023-02-27T16:45:01;2.90;52.60
15013;DHT22;7603;49.432;11.418;2023-02-27T16:47:26;2.60;52.60
15013;DHT22;7603;49.432;11.418;2023-02-27T16:49:53;2.30;54.50
15013;DHT22;7603;49.432;11.418;2023-02-27T16:52:18;2.20;55.10
15013;DHT22;7603;49.432;11.418;2023-02-27T16:54:46;1.90;55.80
15013;DHT22;7603;49.432;11.418;2023-02-27T16:57:12;1.70;56.20
15013;DHT22;7603;49.432;11.418;2023-02-27T16:59:39;1.50;57.00
15013;DHT22;7603;49.432;11.418;2023-02-27T17:02:14;1.30;57.90
15013;DHT22;7603;49.432;11.418;2023-02-27T17:04:40;1.00;58.70
15013;DHT22;7603;49.432;11.418;2023-02-27T17:07:15;0.80;59.40
15013;DHT22;7603;49.432;11.418;2023-02-27T17:09:45;0.50;59.60
15013;DHT22;7603;49.432;11.418;2023-02-27T17:12:11;0.40;60.90
15013;DHT22;7603;49.432;11.418;2023-02-27T17:14:37;0.20;62.00
15013;DHT22;7603;49.432;11.418;2023-02-27T17:17:03;0.00;61.90
15013;DHT22;7603;49.432;11.418;2023-02-27T17:19:28;-0.10;63.60
15013;DHT22;7603;49.432;11.418;2023-02-27T17:21:54;-0.20;64.60
15013;DHT22;7603;49.432;11.418;2023-02-27T17:24:19;-0.30;65.40
15013;DHT22;7603;49.432;11.418;2023-02-27T17:26:45;-0.50;66.40
15013;DHT22;7603;49.432;11.418;2023-02-27T17:29:11;-0.60;66.30
15013;DHT22;7603;49.432;11.418;2023-02-27T17:31:37;-0.60;68.40
15013;DHT22;7603;49.432;11.418;2023-02-27T17:34:03;-0.70;68.00
15013;DHT22;7603;49.432;11.418;2023-02-27T17:36:29;-0.80;68.60
15013;DHT22;7603;49.432;11.418;2023-02-27T17:38:56;-1.00;69.10
15013;DHT22;7603;49.432;11.418;2023-02-27T17:41:22;-1.10;70.40
15013;DHT22;7603;49.432;11.418;2023-02-27T17:43:53;-1.20;72.10
15013;DHT22;7603;49.432;11.418;2023-02-27T17:46:20;-1.30;71.70
15013;DHT22;7603;49.432;11.418;2023-02-27T17:48:46;-1.30;73.10
15013;DHT22;7603;49.432;11.418;2023-02-27T17:51:13;-1.40;74.40
15013;DHT22;7603;49.432;11.418;2023-02-27T17:53:39;-1.40;74.50
15013;DHT22;7603;49.432;11.418;2023-02-27T17:56:05;-1.50;75.80
15013;DHT22;7603;49.432;11.418;2023-02-27T17:58:31;-1.50;77.00
15013;DHT22;7603;49.432;11.418;2023-02-27T18:01:08;-1.60;77.00
15013;DHT22;7603;49.432;11.418;2023-02-27T18:03:34;-1.60;77.00
15013;DHT22;7603;49.432;11.418;2023-02-27T18:05:59;-1.70;77.30
15013;DHT22;7603;49.432;11.418;2023-02-27T18:08:26;-1.70;78.20
15013;DHT22;7603;49.432;11.418;2023-02-27T18:10:52;-1.80;79.50
15013;DHT22;7603;49.432;11.418;2023-02-27T18:13:19;-1.80;80.10
15013;DHT22;7603;49.432;11.418;2023-02-27T18:15:46;-1.80;81.30
15013;DHT22;7603;49.432;11.418;2023-02-27T18:18:12;-1.80;82.50
15013;DHT22;7603;49.432;11.418;2023-02-27T18:20:38;-1.80;83.30
15013;DHT22;7603;49.432;11.418;2023-02-27T18:23:06;-1.70;84.30
15013;DHT22;7603;49.432;11.418;2023-02-27T18:25:33;-1.60;85.30